Humidity-temperature Sensor

Selected Measurement Type: Air Temperature

 
Air Temperature [°C]     6 entries per hour
Showing data from 6/24/2015 (00:00:00 Z) to 6/21/2015 (00:01:00 Z)
Previous Next [ Day | 3-Days | 7-Days ]
First Last
Prev [ Day | 3-Days | 7-Days ] Next
First Last

Start Time:     :
End Time:     :     
Time (in GMT) :00 :50 :40 :30 :20 :10
Previous Next [ Day | 3-Days | 7-Days ]
First Last
Prev [ Day | 3-Days | 7-Days ] Next
First Last


123 => good data
MM => data is determined as missing
-- => data not received/configured
Back to Top Back to Top
6/24/2015 00:00 to 23:10 26.50 26.59 26.65 26.76 26.55 26.63
6/23/2015 23:00 to 22:10 26.70 26.73 26.64 26.75 26.67 26.80
6/23/2015 22:00 to 21:10 26.64 26.78 26.79 26.74 26.75 26.66
6/23/2015 21:00 to 20:10 26.75 26.67 26.67 26.80 26.65 26.73
6/23/2015 20:00 to 19:10 26.80 26.70 26.61 26.64 26.63 26.66
6/23/2015 19:00 to 18:10 26.64 26.70 26.58 26.80 26.74 26.57
6/23/2015 18:00 to 17:10 26.63 26.60 26.63 26.85 26.76 26.75
6/23/2015 17:00 to 16:10 26.73 26.72 26.59 26.79 26.82 26.85
6/23/2015 16:00 to 15:10 26.74 26.80 26.79 26.94 26.83 26.76
6/23/2015 15:00 to 14:10 26.82 26.86 26.83 26.74 26.74 26.84
6/23/2015 14:00 to 13:10 26.89 26.77 26.81 26.80 26.65 26.58
6/23/2015 13:00 to 12:10 26.71 26.61 26.44 26.42 26.42 26.24
6/23/2015 12:00 to 11:10 26.40 26.30 26.36 26.22 26.32 26.32
6/23/2015 11:00 to 10:10 26.33 26.37 26.42 26.25 26.29 26.28
6/23/2015 10:00 to 9:10 26.25 26.34 26.22 26.35 26.29 26.28
6/23/2015 09:00 to 8:10 26.31 26.25 26.31 26.36 26.36 26.35
6/23/2015 08:00 to 7:10 26.32 26.43 26.37 26.36 26.40 26.35
6/23/2015 07:00 to 6:10 26.36 26.40 26.46 26.30 26.20 25.79
6/23/2015 06:00 to 5:10 26.53 26.64 26.41 26.41 26.42 26.58
6/23/2015 05:00 to 4:10 26.37 26.46 26.57 26.46 26.48 26.43
6/23/2015 04:00 to 3:10 26.59 26.45 26.58 26.58 26.48 26.53
6/23/2015 03:00 to 2:10 26.49 26.45 26.59 26.52 26.60 26.48
6/23/2015 02:00 to 1:10 26.53 26.52 26.52 26.58 26.50 26.63
6/23/2015 01:00 to 0:10 26.53 26.56 26.63 26.55 26.59 26.55
6/23/2015 00:00 to 23:10 26.74 26.77 26.66 26.64 26.60 26.53
6/22/2015 23:00 to 22:10 26.60 26.70 26.74 26.63 26.66 26.81
6/22/2015 22:00 to 21:10 26.80 26.78 26.81 26.76 26.77 26.84
6/22/2015 21:00 to 20:10 26.79 26.93 26.82 26.80 26.76 26.83
6/22/2015 20:00 to 19:10 26.82 26.79 26.81 26.81 26.69 26.83
6/22/2015 19:00 to 18:10 26.77 26.77 26.76 26.79 26.77 26.83
6/22/2015 18:00 to 17:10 26.68 26.74 26.82 26.87 26.83 26.63
6/22/2015 17:00 to 16:10 26.66 26.73 26.72 26.79 26.68 26.71
6/22/2015 16:00 to 15:10 26.61 26.69 26.64 26.68 26.66 26.58
6/22/2015 15:00 to 14:10 26.74 26.68 26.72 26.69 26.65 26.63
6/22/2015 14:00 to 13:10 26.59 26.49 26.43 26.58 26.34 26.41
6/22/2015 13:00 to 12:10 26.30 26.34 26.26 26.39 26.22 26.23
6/22/2015 12:00 to 11:10 26.28 26.30 26.28 26.25 26.29 26.31
6/22/2015 11:00 to 10:10 26.30 26.26 26.30 26.33 26.30 26.27
6/22/2015 10:00 to 9:10 26.21 26.26 26.23 26.34 26.26 26.30
6/22/2015 09:00 to 8:10 26.26 26.28 26.29 26.25 26.31 26.31
6/22/2015 08:00 to 7:10 26.39 26.24 26.31 26.37 26.36 26.47
6/22/2015 07:00 to 6:10 26.35 26.41 26.45 26.44 26.41 26.43
6/22/2015 06:00 to 5:10 26.42 26.46 26.52 26.44 26.53 26.51
6/22/2015 05:00 to 4:10 26.45 26.52 26.49 26.56 26.57 26.54
6/22/2015 04:00 to 3:10 26.57 26.64 26.50 26.54 26.61 26.59
6/22/2015 03:00 to 2:10 26.63 26.60 26.57 26.60 26.55 26.54
6/22/2015 02:00 to 1:10 26.61 26.59 26.52 26.59 26.58 26.55
6/22/2015 01:00 to 0:10 26.59 26.52 26.65 26.61 26.68 26.67
6/22/2015 00:00 to 23:10 26.64 26.67 26.79 26.76 26.82 26.78
6/21/2015 23:00 to 22:10 26.65 26.69 26.70 26.72 26.68 26.60
6/21/2015 22:00 to 21:10 26.75 26.75 26.88 26.69 26.75 26.72
6/21/2015 21:00 to 20:10 26.76 26.72 26.62 26.69 26.64 26.66
6/21/2015 20:00 to 19:10 26.73 26.60 26.76 26.55 26.65 26.55
6/21/2015 19:00 to 18:10 26.64 26.51 26.65 26.59 26.67 26.54
6/21/2015 18:00 to 17:10 26.53 26.66 26.58 26.61 26.61 26.43
6/21/2015 17:00 to 16:10 26.54 26.57 26.59 26.64 26.68 26.79
6/21/2015 16:00 to 15:10 26.67 26.73 26.73 26.60 26.65 26.62
6/21/2015 15:00 to 14:10 26.61 26.59 26.47 26.45 26.46 26.47
6/21/2015 14:00 to 13:10 26.36 26.35 26.40 26.34 26.27 26.36
6/21/2015 13:00 to 12:10 26.25 26.29 26.19 26.08 26.11 26.17
6/21/2015 12:00 to 11:10 26.14 26.12 26.15 26.13 26.24 26.21
6/21/2015 11:00 to 10:10 26.07 26.21 26.33 26.25 26.23 26.27
6/21/2015 10:00 to 9:10 26.28 26.32 26.43 26.34 26.30 26.26
6/21/2015 09:00 to 8:10 26.30 26.23 26.17 26.25 26.28 26.30
6/21/2015 08:00 to 7:10 26.39 26.36 26.49 26.44 26.42 26.40
6/21/2015 07:00 to 6:10 26.41 26.40 26.42 26.44 26.50 26.37
6/21/2015 06:00 to 5:10 26.40 26.57 26.31 26.04 26.14 26.29
6/21/2015 05:00 to 4:10 26.37 26.48 26.60 26.34 26.51 26.55
6/21/2015 04:00 to 3:10 26.58 26.51 26.56 26.65 26.59 26.50
6/21/2015 03:00 to 2:10 26.53 26.58 26.46 26.54 26.50 26.57
6/21/2015 02:00 to 1:10 26.46 26.47 26.38 26.54 26.44 26.50
6/21/2015 01:00 to 0:10 26.45 26.56 26.55 26.60 26.66 26.58